Time;durP1;ratioP1;P1;durP2;ratioP2;P2;SDS_P1;SDS_P2;PMS_P1;PMS_P2;Temp;Humidity;BMP_temperature;BMP_pressure;BME280_temperature;BME280_humidity;BME280_pressure;Samples;Min_cycle;Max_cycle;Signal;HPM_P1;HPM_P2
2023/12/04 00:01:26;;;;;;;68.53;28.60;;;-0.50;99.90;;;;;;5054764;28;20045;-42
2023/12/04 00:03:52;;;;;;;63.13;29.20;;;-0.60;99.90;;;;;;5053763;28;20479;-42
2023/12/04 00:06:19;;;;;;;68.17;30.67;;;-0.50;99.90;;;;;;5054330;28;20053;-41
2023/12/04 00:08:45;;;;;;;59.53;27.07;;;-0.70;99.90;;;;;;5054577;28;20380;-42
2023/12/04 00:11:11;;;;;;;71.83;28.90;;;-0.80;99.90;;;;;;5054432;28;20426;-42
2023/12/04 00:13:37;;;;;;;63.73;28.67;;;-0.60;99.90;;;;;;5037101;28;20135;-42
2023/12/04 00:16:03;;;;;;;63.00;28.23;;;-0.70;99.90;;;;;;5054520;28;20052;-42
2023/12/04 00:18:28;;;;;;;63.50;28.40;;;-0.80;99.90;;;;;;5054725;28;20052;-42
2023/12/04 00:20:54;;;;;;;68.00;30.03;;;-0.50;99.90;;;;;;5054327;28;20036;-42
2023/12/04 00:23:20;;;;;;;66.57;29.67;;;-0.30;99.90;;;;;;5053886;28;20087;-43
2023/12/04 00:25:45;;;;;;;62.43;28.27;;;-0.40;99.90;;;;;;5053355;28;20049;-42
2023/12/04 00:28:11;;;;;;;62.53;27.90;;;-0.50;99.90;;;;;;5052872;28;20194;-41
2023/12/04 00:30:37;;;;;;;70.37;29.90;;;-0.60;99.90;;;;;;5054797;28;20041;-42
2023/12/04 00:33:03;;;;;;;69.03;30.73;;;-0.70;99.90;;;;;;5054119;28;20052;-42
2023/12/04 00:35:29;;;;;;;75.53;32.83;;;-0.80;99.90;;;;;;5054699;28;20048;-42
2023/12/04 00:37:54;;;;;;;74.23;32.00;;;-0.80;99.90;;;;;;5054622;28;20047;-43
2023/12/04 00:40:20;;;;;;;73.53;31.57;;;-0.50;99.90;;;;;;5053442;28;20475;-42
2023/12/04 00:42:46;;;;;;;80.73;32.07;;;-0.60;99.90;;;;;;5054314;28;20040;-43
2023/12/04 00:45:12;;;;;;;77.97;31.60;;;-0.80;99.90;;;;;;5053974;28;20045;-42
2023/12/04 00:47:37;;;;;;;79.60;32.13;;;-0.50;99.90;;;;;;5053504;28;20045;-42
2023/12/04 00:50:04;;;;;;;84.60;33.03;;;-0.80;99.90;;;;;;5053890;28;20044;-42
2023/12/04 00:52:30;;;;;;;84.17;31.57;;;-0.70;99.90;;;;;;5052884;28;20490;-43
2023/12/04 00:54:56;;;;;;;83.50;33.67;;;-0.60;99.90;;;;;;5053747;28;20080;-43
2023/12/04 00:57:21;;;;;;;90.03;33.57;;;-0.50;99.90;;;;;;5052610;28;20460;-43
2023/12/04 00:59:49;;;;;;;85.20;32.77;;;-0.50;99.90;;;;;;5036036;28;20091;-43
2023/12/04 01:02:15;;;;;;;87.17;34.27;;;-0.80;99.90;;;;;;5054298;28;20098;-42
2023/12/04 01:04:44;;;;;;;92.90;34.90;;;-0.70;99.90;;;;;;5053689;28;20041;-42
2023/12/04 01:07:09;;;;;;;77.67;32.63;;;-0.50;99.90;;;;;;5053702;28;20506;-42
2023/12/04 01:09:36;;;;;;;84.07;32.90;;;-0.60;99.90;;;;;;5053224;28;20057;-43
2023/12/04 01:12:02;;;;;;;95.60;34.67;;;-0.80;99.90;;;;;;5052626;28;20053;-43
2023/12/04 01:14:28;;;;;;;95.20;35.87;;;-0.80;99.90;;;;;;5053550;28;20064;-42
2023/12/04 01:16:54;;;;;;;89.33;36.67;;;-0.50;99.90;;;;;;5053585;28;20602;-42
2023/12/04 01:19:19;;;;;;;99.37;35.97;;;-0.80;99.90;;;;;;5053537;28;20045;-41
2023/12/04 01:21:45;;;;;;;89.27;34.67;;;-0.70;99.90;;;;;;5053440;28;20051;-42
2023/12/04 01:24:11;;;;;;;85.27;34.13;;;-0.60;99.90;;;;;;5052321;28;20045;-42
2023/12/04 01:26:37;;;;;;;78.30;33.87;;;-0.60;99.90;;;;;;5053469;28;20175;-41
2023/12/04 01:29:03;;;;;;;93.83;34.97;;;-0.50;99.90;;;;;;5052028;28;20049;-41
2023/12/04 01:31:29;;;;;;;85.83;33.83;;;-0.60;99.90;;;;;;5053396;28;20132;-41
2023/12/04 01:33:54;;;;;;;76.67;33.00;;;-0.70;99.90;;;;;;5054145;28;20128;-41
2023/12/04 01:36:20;;;;;;;78.77;32.00;;;-0.80;99.90;;;;;;5056889;28;20079;-41
2023/12/04 01:38:46;;;;;;;89.60;33.30;;;-0.70;99.90;;;;;;5056520;28;20052;-41
2023/12/04 01:41:12;;;;;;;86.07;36.13;;;-0.40;99.90;;;;;;5057433;28;20059;-42
2023/12/04 01:43:38;;;;;;;76.73;33.43;;;-0.80;99.90;;;;;;5057357;28;20044;-42
2023/12/04 01:46:04;;;;;;;87.47;33.97;;;-0.50;99.90;;;;;;5057217;28;20106;-42
2023/12/04 01:48:30;;;;;;;81.13;33.63;;;-0.50;99.90;;;;;;5056091;28;20045;-42
2023/12/04 01:51:00;;;;;;;78.70;30.50;;;-0.50;99.90;;;;;;5057294;28;20052;-42
2023/12/04 01:53:26;;;;;;;71.27;31.47;;;-0.40;99.90;;;;;;5056145;28;20085;-42
2023/12/04 01:55:52;;;;;;;78.43;32.73;;;-0.40;99.90;;;;;;5056761;28;20045;-43
2023/12/04 01:58:18;;;;;;;79.57;34.30;;;-0.80;99.90;;;;;;5023341;28;20053;-43
2023/12/04 02:00:44;;;;;;;76.23;32.90;;;-0.80;99.90;;;;;;5055884;28;20144;-42
2023/12/04 02:03:10;;;;;;;79.07;33.43;;;-0.70;99.90;;;;;;5057338;28;20132;-43
2023/12/04 02:05:37;;;;;;;74.70;31.93;;;-0.80;99.90;;;;;;5056969;28;20127;-43
2023/12/04 02:08:04;;;;;;;81.63;31.13;;;-0.80;99.90;;;;;;5057214;28;20037;-44
2023/12/04 02:10:29;;;;;;;74.13;31.57;;;-0.50;99.90;;;;;;5039396;28;20410;-43
2023/12/04 02:12:55;;;;;;;78.57;30.57;;;-0.80;99.90;;;;;;5056836;28;20049;-43
2023/12/04 02:15:21;;;;;;;79.13;31.27;;;-0.50;99.90;;;;;;5057254;28;20039;-43
2023/12/04 02:17:47;;;;;;;77.00;31.30;;;-0.60;99.90;;;;;;5056785;28;20051;-43
2023/12/04 02:20:14;;;;;;;80.77;33.13;;;-0.20;99.90;;;;;;5039852;28;20045;-42
2023/12/04 02:22:40;;;;;;;71.87;31.77;;;-0.50;99.90;;;;;;5057511;28;20076;-43
2023/12/04 02:25:07;;;;;;;75.03;31.93;;;-0.80;99.90;;;;;;5057156;28;20399;-42
2023/12/04 02:27:44;;;;;;;73.33;31.57;;;-0.70;99.90;;;;;;5056563;28;20056;-43
2023/12/04 02:30:13;;;;;;;76.00;31.27;;;-0.80;99.90;;;;;;5056089;28;20132;-42
2023/12/04 02:32:45;;;;;;;75.37;31.53;;;-0.40;99.90;;;;;;5056496;28;20055;-42
2023/12/04 02:35:12;;;;;;;72.47;31.37;;;-0.80;99.90;;;;;;5056999;28;20044;-43
2023/12/04 02:37:39;;;;;;;73.63;29.43;;;-0.70;99.90;;;;;;5056951;28;20449;-42
2023/12/04 02:40:06;;;;;;;69.00;31.63;;;-0.70;99.90;;;;;;5055384;28;20136;-42
2023/12/04 02:42:32;;;;;;;71.70;30.70;;;-0.60;99.90;;;;;;5056335;28;20104;-42
2023/12/04 02:44:58;;;;;;;72.40;29.83;;;-0.20;99.90;;;;;;5055902;28;20520;-42
2023/12/04 02:47:24;;;;;;;64.37;29.50;;;-0.30;99.90;;;;;;5055355;28;20120;-42
2023/12/04 02:49:50;;;;;;;66.40;28.93;;;-0.40;99.90;;;;;;5054999;28;20041;-42
2023/12/04 02:52:16;;;;;;;65.73;28.97;;;-0.50;99.90;;;;;;5056123;28;20076;-42
2023/12/04 02:54:41;;;;;;;64.97;29.13;;;-0.60;99.90;;;;;;5054783;28;20127;-41
2023/12/04 02:57:07;;;;;;;61.13;28.03;;;-0.60;99.90;;;;;;5055042;28;20045;-41
2023/12/04 02:59:33;;;;;;;60.07;28.73;;;-0.40;99.90;;;;;;5055985;28;20182;-41
2023/12/04 03:01:59;;;;;;;66.73;28.70;;;-0.20;99.90;;;;;;5056777;28;20072;-41
2023/12/04 03:04:29;;;;;;;64.37;27.40;;;-0.10;99.90;;;;;;5055584;28;20043;-41
2023/12/04 03:06:55;;;;;;;66.97;27.53;;;-0.30;99.90;;;;;;5055853;28;20048;-41
2023/12/04 03:09:20;;;;;;;61.53;28.67;;;-0.60;99.90;;;;;;5055136;28;20053;-41
2023/12/04 03:11:46;;;;;;;57.30;27.50;;;-0.20;99.90;;;;;;5055103;28;20047;-41
2023/12/04 03:14:12;;;;;;;65.27;27.90;;;-0.70;99.90;;;;;;5054995;28;20387;-41
2023/12/04 03:16:38;;;;;;;54.40;26.23;;;-0.60;99.90;;;;;;5021697;28;20049;-42
2023/12/04 03:19:04;;;;;;;58.40;27.20;;;-0.10;99.90;;;;;;5054988;28;20368;-41
2023/12/04 03:21:29;;;;;;;56.93;26.33;;;-0.20;99.90;;;;;;5055452;28;20048;-41
2023/12/04 03:23:55;;;;;;;56.10;26.70;;;-0.30;99.90;;;;;;5055196;28;20048;-41
2023/12/04 03:26:21;;;;;;;53.53;27.23;;;-0.10;99.90;;;;;;5054836;28;20094;-41
2023/12/04 03:28:47;;;;;;;52.00;27.73;;;-0.10;99.90;;;;;;5054020;28;20056;-41
2023/12/04 03:31:13;;;;;;;52.87;26.33;;;-0.40;99.90;;;;;;5054806;28;20045;-41
2023/12/04 03:33:38;;;;;;;55.03;27.60;;;-0.50;99.90;;;;;;5055254;28;20045;-41
2023/12/04 03:36:05;;;;;;;53.47;26.73;;;-0.50;99.90;;;;;;5055611;28;20047;-41
2023/12/04 03:38:31;;;;;;;51.53;27.63;;;-0.10;99.90;;;;;;5055522;28;20041;-40
2023/12/04 03:40:56;;;;;;;55.80;26.57;;;-0.60;99.90;;;;;;5055199;28;20053;-40
2023/12/04 03:43:22;;;;;;;60.77;27.37;;;0.00;99.90;;;;;;5055171;28;20048;-40
2023/12/04 03:45:48;;;;;;;58.43;28.07;;;0.00;99.90;;;;;;5055119;28;20045;-40
2023/12/04 03:48:14;;;;;;;56.47;26.30;;;-0.60;99.90;;;;;;5055116;28;20040;-38
2023/12/04 03:50:40;;;;;;;58.23;26.83;;;-0.20;99.90;;;;;;5054076;28;20454;-38
2023/12/04 03:53:05;;;;;;;61.10;27.10;;;0.10;99.90;;;;;;5038226;28;20052;-38
2023/12/04 03:55:31;;;;;;;57.77;28.03;;;-0.20;99.90;;;;;;5053712;28;20060;-35
2023/12/04 03:57:58;;;;;;;55.87;27.53;;;-0.10;99.90;;;;;;5055429;28;20095;-37
2023/12/04 04:00:24;;;;;;;57.63;27.07;;;-0.30;99.90;;;;;;5054862;28;20049;-35
2023/12/04 04:02:50;;;;;;;62.70;29.47;;;-0.60;99.90;;;;;;5053247;28;20560;-34
2023/12/04 04:05:16;;;;;;;63.50;27.83;;;-0.30;99.90;;;;;;5055009;28;20048;-35
2023/12/04 04:07:41;;;;;;;59.93;27.27;;;0.10;99.90;;;;;;5055215;28;20101;-35
2023/12/04 04:10:08;;;;;;;62.20;28.83;;;-0.30;99.90;;;;;;5053491;28;20049;-35
2023/12/04 04:12:34;;;;;;;60.00;26.80;;;-0.70;99.90;;;;;;5054291;28;20522;-34
2023/12/04 04:15:01;;;;;;;56.07;27.30;;;-0.60;99.90;;;;;;5053375;28;20075;-34
2023/12/04 04:17:26;;;;;;;56.73;27.60;;;-0.40;99.90;;;;;;5054767;28;20049;-34
2023/12/04 04:19:53;;;;;;;58.20;27.20;;;-0.30;99.90;;;;;;5054404;28;20509;-33
2023/12/04 04:22:20;;;;;;;60.63;27.53;;;0.00;99.90;;;;;;5036950;28;20060;-34
2023/12/04 04:24:46;;;;;;;50.23;27.27;;;-0.50;99.90;;;;;;5054393;28;20045;-34
2023/12/04 04:27:12;;;;;;;57.27;25.13;;;0.00;99.90;;;;;;5054329;28;20053;-36
2023/12/04 04:29:37;;;;;;;57.97;25.43;;;0.10;99.90;;;;;;5054257;28;20063;-35
2023/12/04 04:32:04;;;;;;;57.83;26.23;;;0.10;99.90;;;;;;5054252;28;20055;-34
2023/12/04 04:34:29;;;;;;;55.17;27.03;;;0.10;99.90;;;;;;5053837;28;20052;-35
2023/12/04 04:36:55;;;;;;;56.63;27.03;;;-0.50;99.90;;;;;;5036371;28;20411;-36
2023/12/04 04:39:21;;;;;;;54.17;26.27;;;-0.70;99.90;;;;;;5036609;28;20049;-38
2023/12/04 04:41:47;;;;;;;53.67;27.40;;;-0.50;99.90;;;;;;5054122;28;20140;-36
2023/12/04 04:44:13;;;;;;;54.83;24.90;;;0.60;99.90;;;;;;5053899;28;20463;-35
2023/12/04 04:46:38;;;;;;;54.63;24.90;;;-0.70;99.90;;;;;;5053311;28;20183;-35
2023/12/04 04:49:07;;;;;;;56.07;25.67;;;-0.10;99.90;;;;;;5053027;28;20049;-34
2023/12/04 04:51:34;;;;;;;55.47;26.63;;;-0.40;99.90;;;;;;5053914;28;20052;-35
2023/12/04 04:54:03;;;;;;;58.23;24.73;;;-0.60;99.90;;;;;;5053818;28;20040;-37
2023/12/04 04:56:29;;;;;;;54.07;26.13;;;-0.70;99.90;;;;;;5054121;28;20075;-39
2023/12/04 04:58:56;;;;;;;47.70;22.63;;;0.00;99.90;;;;;;5036380;28;20506;-39
2023/12/04 05:01:21;;;;;;;54.93;25.40;;;-0.50;99.90;;;;;;5052571;28;20419;-39
2023/12/04 05:03:47;;;;;;;52.07;24.83;;;0.00;99.90;;;;;;5053767;28;20051;-38
2023/12/04 05:06:14;;;;;;;51.90;24.27;;;0.10;99.90;;;;;;5036225;28;20386;-39
2023/12/04 05:08:40;;;;;;;55.60;25.33;;;0.10;99.90;;;;;;5053962;28;20128;-39
2023/12/04 05:11:05;;;;;;;50.93;24.73;;;0.30;99.90;;;;;;5053114;28;20091;-41
2023/12/04 05:13:31;;;;;;;51.33;23.10;;;-0.70;99.90;;;;;;5053560;28;20084;-40
2023/12/04 05:15:57;;;;;;;52.30;25.20;;;-0.50;99.90;;;;;;5053888;28;20044;-41
2023/12/04 05:18:23;;;;;;;53.43;24.33;;;-0.70;99.90;;;;;;5053624;28;20486;-42
2023/12/04 05:20:48;;;;;;;46.80;24.03;;;-0.70;99.90;;;;;;5053491;28;20048;-41
2023/12/04 05:23:14;;;;;;;48.67;23.17;;;-0.40;99.90;;;;;;5052863;28;20053;-41
2023/12/04 05:25:40;;;;;;;52.60;24.33;;;-0.20;99.90;;;;;;5053496;28;20060;-42
2023/12/04 05:28:06;;;;;;;52.47;24.57;;;-0.10;99.90;;;;;;5053310;28;20044;-43
2023/12/04 05:30:32;;;;;;;50.97;25.37;;;0.20;99.90;;;;;;5053514;28;20049;-41
2023/12/04 05:32:58;;;;;;;54.97;24.67;;;-0.50;99.90;;;;;;5054236;28;20107;-41
2023/12/04 05:35:26;;;;;;;47.30;22.77;;;-0.70;99.90;;;;;;5052687;28;20471;-41
2023/12/04 05:37:52;;;;;;;44.77;21.90;;;0.00;99.90;;;;;;5053443;28;20045;-42
2023/12/04 05:40:18;;;;;;;45.30;22.50;;;-0.50;99.90;;;;;;5053331;28;20080;-42
2023/12/04 05:42:44;;;;;;;48.97;22.27;;;0.10;99.90;;;;;;5052225;28;20056;-42
2023/12/04 05:45:10;;;;;;;44.40;22.37;;;0.10;99.90;;;;;;5036404;28;20049;-42
2023/12/04 05:47:35;;;;;;;50.73;22.80;;;0.10;99.90;;;;;;5053584;28;20081;-42
2023/12/04 05:50:01;;;;;;;44.40;21.77;;;-0.10;99.90;;;;;;5036076;28;20049;-42
2023/12/04 05:52:27;;;;;;;48.03;22.67;;;0.00;99.90;;;;;;5053241;28;20045;-41
2023/12/04 05:54:53;;;;;;;41.90;20.00;;;-0.40;99.90;;;;;;5053158;28;20037;-42
2023/12/04 05:57:19;;;;;;;44.70;21.47;;;0.00;99.90;;;;;;5053239;28;20045;-41
2023/12/04 05:59:44;;;;;;;42.10;20.70;;;0.10;99.90;;;;;;5052855;28;20041;-42
2023/12/04 06:02:10;;;;;;;42.43;21.30;;;0.00;99.90;;;;;;5052821;28;20056;-42
2023/12/04 06:04:36;;;;;;;43.83;20.97;;;-0.60;99.90;;;;;;5053184;28;20048;-42
2023/12/04 06:07:02;;;;;;;38.57;20.93;;;0.00;99.90;;;;;;5052983;28;20049;-41
2023/12/04 06:09:28;;;;;;;49.23;21.50;;;0.10;99.90;;;;;;5053077;28;20454;-41
2023/12/04 06:11:53;;;;;;;45.50;21.57;;;-0.20;99.90;;;;;;5051899;28;20087;-42
2023/12/04 06:14:19;;;;;;;39.23;20.57;;;0.10;99.90;;;;;;5052064;28;20041;-42
2023/12/04 06:16:45;;;;;;;42.03;20.77;;;-0.60;99.90;;;;;;5052712;28;20469;-41
2023/12/04 06:19:11;;;;;;;41.10;20.73;;;-0.50;99.90;;;;;;5053007;28;20048;-37
2023/12/04 06:21:37;;;;;;;42.10;20.67;;;-0.70;99.90;;;;;;5052198;28;20127;-39
2023/12/04 06:24:03;;;;;;;44.77;21.10;;;-0.60;99.90;;;;;;5056656;28;20088;-39
2023/12/04 06:26:31;;;;;;;42.47;21.93;;;-0.60;99.90;;;;;;5056626;28;20479;-39
2023/12/04 06:28:57;;;;;;;38.33;20.27;;;-0.10;99.90;;;;;;5056726;28;20465;-37
2023/12/04 06:31:23;;;;;;;40.57;20.80;;;-0.60;99.90;;;;;;5055661;28;20044;-35
2023/12/04 06:33:49;;;;;;;37.57;20.03;;;-0.60;99.90;;;;;;5056497;28;20498;-36
2023/12/04 06:36:17;;;;;;;38.27;19.60;;;-0.20;99.90;;;;;;5055270;28;20040;-35
2023/12/04 06:38:46;;;;;;;40.97;19.87;;;0.00;99.90;;;;;;5055234;28;20094;-35
2023/12/04 06:41:13;;;;;;;41.17;19.87;;;-0.50;99.90;;;;;;5056320;28;20045;-39
2023/12/04 06:43:39;;;;;;;39.87;20.50;;;-0.50;99.90;;;;;;5055031;28;20521;-36
2023/12/04 06:46:05;;;;;;;45.77;20.30;;;-0.30;99.90;;;;;;5056242;28;20518;-35
2023/12/04 06:48:32;;;;;;;38.40;20.10;;;-0.30;99.90;;;;;;5056159;28;20045;-36
2023/12/04 06:50:58;;;;;;;45.43;20.03;;;-0.70;99.90;;;;;;5056167;28;20084;-37
2023/12/04 06:53:24;;;;;;;34.50;18.47;;;0.00;99.90;;;;;;5054874;28;20538;-36
2023/12/04 06:55:50;;;;;;;36.03;17.70;;;0.00;99.90;;;;;;5056282;28;20140;-35
2023/12/04 06:58:15;;;;;;;38.97;19.40;;;-0.20;99.90;;;;;;5054867;28;20045;-37
2023/12/04 07:00:41;;;;;;;37.70;20.10;;;-0.20;99.90;;;;;;5054850;28;20510;-36
2023/12/04 07:03:07;;;;;;;32.13;17.67;;;-0.50;99.90;;;;;;5056760;28;20048;-41
2023/12/04 07:05:32;;;;;;;35.37;18.50;;;-0.10;99.90;;;;;;5054777;28;20521;-41
2023/12/04 07:07:58;;;;;;;37.53;18.40;;;-0.50;99.90;;;;;;5055833;28;20121;-41
2023/12/04 07:10:24;;;;;;;35.03;17.60;;;-0.40;99.90;;;;;;5054742;28;20060;-40
2023/12/04 07:12:50;;;;;;;34.90;17.40;;;-0.70;99.90;;;;;;5055375;28;20072;-41
2023/12/04 07:15:17;;;;;;;39.70;18.80;;;-0.20;99.90;;;;;;5054561;28;20419;-43
2023/12/04 07:17:42;;;;;;;36.80;19.83;;;-0.60;99.90;;;;;;5054505;28;20045;-43
2023/12/04 07:20:09;;;;;;;36.13;18.37;;;-0.70;99.90;;;;;;5054428;28;20055;-43
2023/12/04 07:22:35;;;;;;;36.27;18.50;;;-0.30;99.90;;;;;;5037871;28;20049;-44
2023/12/04 07:25:01;;;;;;;36.17;19.27;;;-0.40;99.90;;;;;;5055579;28;20041;-44
2023/12/04 07:27:27;;;;;;;36.73;19.40;;;-0.70;99.90;;;;;;5055438;28;20131;-44
2023/12/04 07:29:53;;;;;;;34.70;17.83;;;-0.40;99.90;;;;;;5055301;28;20069;-44
2023/12/04 07:32:19;;;;;;;36.00;18.20;;;-0.40;99.90;;;;;;5055088;28;20059;-44
2023/12/04 07:34:45;;;;;;;38.87;17.63;;;-0.80;99.90;;;;;;5055288;28;20114;-45
2023/12/04 07:37:11;;;;;;;38.23;18.70;;;-0.60;99.90;;;;;;5055872;28;20080;-44
2023/12/04 07:39:37;;;;;;;33.47;17.57;;;-0.60;99.90;;;;;;5055300;28;20490;-46
2023/12/04 07:42:03;;;;;;;34.40;18.33;;;-0.70;99.90;;;;;;5055180;28;20055;-45
2023/12/04 07:44:30;;;;;;;33.30;17.23;;;-0.60;99.90;;;;;;5053972;28;20033;-45
2023/12/04 07:46:56;;;;;;;33.13;17.40;;;-0.70;99.90;;;;;;5053933;28;20123;-46
2023/12/04 07:49:21;;;;;;;35.40;17.13;;;-0.70;99.90;;;;;;5055070;28;20543;-46
2023/12/04 07:51:50;;;;;;;32.23;16.87;;;-0.40;99.90;;;;;;5036938;28;20056;-46
2023/12/04 07:54:16;;;;;;;30.93;16.97;;;-0.50;99.90;;;;;;5037661;28;20517;-47
2023/12/04 07:56:42;;;;;;;31.97;15.90;;;-0.70;99.90;;;;;;5053790;28;20080;-47
2023/12/04 07:59:09;;;;;;;33.77;17.17;;;-0.40;99.90;;;;;;5055325;28;20391;-47
2023/12/04 08:01:34;;;;;;;31.50;15.40;;;-0.50;99.90;;;;;;5055201;28;20107;-46
2023/12/04 08:04:00;;;;;;;29.73;16.07;;;-0.40;99.90;;;;;;5053478;28;20049;-44
2023/12/04 08:06:26;;;;;;;28.20;15.40;;;-0.60;99.90;;;;;;5054572;28;20045;-45
2023/12/04 08:08:52;;;;;;;30.03;15.60;;;-0.30;99.90;;;;;;5054557;28;20483;-45
2023/12/04 08:11:18;;;;;;;30.80;15.07;;;-0.50;99.90;;;;;;5054820;28;20497;-44
2023/12/04 08:13:44;;;;;;;28.47;15.10;;;-0.30;99.90;;;;;;5054427;28;20120;-44
2023/12/04 08:16:15;;;;;;;27.73;15.43;;;-0.50;99.90;;;;;;5053661;28;20048;-44
2023/12/04 08:18:41;;;;;;;28.23;15.00;;;-0.30;99.90;;;;;;5053358;28;20438;-44
2023/12/04 08:21:07;;;;;;;25.17;15.00;;;-0.30;99.90;;;;;;5054408;28;20052;-44
2023/12/04 08:23:32;;;;;;;27.00;14.57;;;-0.40;99.90;;;;;;5053320;28;20049;-44
2023/12/04 08:25:58;;;;;;;27.17;15.00;;;-0.20;99.90;;;;;;5054652;28;20052;-42
2023/12/04 08:28:24;;;;;;;26.47;13.57;;;-0.20;99.90;;;;;;5054050;28;20139;-43
2023/12/04 08:30:50;;;;;;;25.40;14.80;;;-0.30;99.90;;;;;;5054621;28;20052;-42
2023/12/04 08:33:16;;;;;;;23.13;13.60;;;-0.20;99.90;;;;;;5054094;28;20072;-43
2023/12/04 08:35:42;;;;;;;21.67;13.47;;;-0.20;99.90;;;;;;5054267;28;20087;-43
2023/12/04 08:38:07;;;;;;;23.33;14.27;;;-0.30;99.90;;;;;;5054196;28;20045;-42
2023/12/04 08:40:33;;;;;;;21.60;12.60;;;-0.30;99.90;;;;;;5054116;28;20107;-42
2023/12/04 08:42:59;;;;;;;23.90;13.67;;;-0.20;99.90;;;;;;5054359;28;20048;-42
2023/12/04 08:45:25;;;;;;;24.77;13.90;;;-0.20;99.90;;;;;;5053377;28;20045;-42
2023/12/04 08:47:51;;;;;;;22.73;13.00;;;-0.20;99.90;;;;;;5054821;28;20063;-41
2023/12/04 08:50:17;;;;;;;26.03;13.47;;;0.00;99.90;;;;;;5036503;28;20505;-41
2023/12/04 08:52:42;;;;;;;21.87;12.60;;;-0.10;99.90;;;;;;5054128;28;20128;-40
2023/12/04 08:55:09;;;;;;;25.30;13.07;;;0.00;99.90;;;;;;5053851;28;20047;-39
2023/12/04 08:57:35;;;;;;;23.20;12.53;;;0.00;99.90;;;;;;5052739;28;20148;-36
2023/12/04 09:00:03;;;;;;;20.80;11.47;;;0.10;99.90;;;;;;5052748;28;20061;-35
2023/12/04 09:02:30;;;;;;;25.77;11.87;;;0.00;99.90;;;;;;5019976;28;20167;-34
2023/12/04 09:04:56;;;;;;;19.53;11.50;;;0.10;99.90;;;;;;5052485;28;20049;-34
2023/12/04 09:07:22;;;;;;;19.50;11.90;;;0.10;99.90;;;;;;5053768;28;20067;-34
2023/12/04 09:09:48;;;;;;;18.60;11.30;;;0.30;99.90;;;;;;5053678;28;20549;-34
2023/12/04 09:12:14;;;;;;;21.67;11.87;;;0.50;99.90;;;;;;5052405;28;20049;-34
2023/12/04 09:14:40;;;;;;;18.50;10.77;;;0.30;99.90;;;;;;5053866;28;20040;-34
2023/12/04 09:17:06;;;;;;;18.80;11.00;;;0.20;99.90;;;;;;5052499;28;20063;-33
2023/12/04 09:19:32;;;;;;;20.97;11.13;;;0.20;99.90;;;;;;5036451;28;20526;-34
2023/12/04 09:21:58;;;;;;;17.47;10.10;;;0.40;99.90;;;;;;5053966;28;20048;-34
2023/12/04 09:24:23;;;;;;;20.20;11.30;;;0.30;99.90;;;;;;5054146;28;20045;-32
2023/12/04 09:26:50;;;;;;;18.57;11.40;;;0.50;99.90;;;;;;5053555;28;20056;-32
2023/12/04 09:29:18;;;;;;;17.63;10.73;;;0.40;99.90;;;;;;5052141;28;20132;-32
2023/12/04 09:31:45;;;;;;;16.33;9.93;;;0.40;99.90;;;;;;5052818;28;20099;-32
2023/12/04 09:34:11;;;;;;;17.67;10.80;;;0.50;99.90;;;;;;5035774;28;20041;-32
2023/12/04 09:36:37;;;;;;;17.90;10.80;;;0.40;99.90;;;;;;5053346;28;20589;-32
2023/12/04 09:39:04;;;;;;;15.60;9.83;;;0.40;99.90;;;;;;5053377;28;20368;-31
2023/12/04 09:41:31;;;;;;;17.27;10.30;;;0.40;99.90;;;;;;5053365;28;20041;-31
2023/12/04 09:43:57;;;;;;;14.70;10.00;;;0.40;99.90;;;;;;5053381;28;20118;-31
2023/12/04 09:46:22;;;;;;;14.67;9.23;;;0.40;99.90;;;;;;5053557;28;20093;-31
2023/12/04 09:48:50;;;;;;;16.00;9.60;;;0.40;99.90;;;;;;5035747;28;20052;-31
2023/12/04 09:51:18;;;;;;;15.87;9.97;;;0.40;99.90;;;;;;5053280;28;20132;-31
2023/12/04 09:53:48;;;;;;;15.57;10.17;;;0.50;99.90;;;;;;5053035;28;20045;-31
2023/12/04 09:56:19;;;;;;;18.17;10.60;;;0.50;99.90;;;;;;5054604;28;20049;-30
2023/12/04 09:58:48;;;;;;;14.87;9.30;;;0.50;99.90;;;;;;5057187;28;20394;-30
2023/12/04 10:01:14;;;;;;;14.57;9.50;;;0.50;99.90;;;;;;5056125;28;20487;-30
2023/12/04 10:03:41;;;;;;;20.23;10.60;;;0.60;99.90;;;;;;5056394;28;20044;-30
2023/12/04 10:06:08;;;;;;;16.30;10.13;;;0.60;99.90;;;;;;5056027;28;20059;-30
2023/12/04 10:08:34;;;;;;;15.40;9.80;;;0.70;99.90;;;;;;5057831;28;20045;-30
2023/12/04 10:11:01;;;;;;;18.87;10.10;;;0.70;99.90;;;;;;5056991;28;20380;-30
2023/12/04 10:13:27;;;;;;;14.40;9.17;;;0.70;99.90;;;;;;5055711;28;20049;-30
2023/12/04 10:15:53;;;;;;;14.63;9.53;;;0.90;99.90;;;;;;5056865;28;20049;-29
2023/12/04 10:18:26;;;;;;;14.65;8.80;;;0.90;99.90;;;;;;5056812;28;20067;-30
2023/12/04 10:20:56;;;;;;;13.77;8.40;;;1.10;99.90;;;;;;5055504;28;20047;-29
2023/12/04 10:23:23;;;;;;;13.97;8.53;;;1.10;99.90;;;;;;5056987;28;20049;-29
2023/12/04 10:25:50;;;;;;;14.30;9.43;;;1.60;99.90;;;;;;5056679;28;20475;-30
2023/12/04 10:28:17;;;;;;;14.90;9.35;;;1.30;99.90;;;;;;5056480;28;20096;-29
2023/12/04 10:30:43;;;;;;;14.60;8.52;;;1.50;99.90;;;;;;5056639;28;20041;-29
2023/12/04 10:33:10;;;;;;;14.80;8.63;;;1.50;99.90;;;;;;5038934;28;20498;-29
2023/12/04 10:35:36;;;;;;;13.27;8.32;;;1.50;99.90;;;;;;5056444;28;20120;-29
2023/12/04 10:38:03;;;;;;;16.98;8.60;;;1.60;99.90;;;;;;5056439;28;20052;-29
2023/12/04 10:40:31;;;;;;;14.02;7.93;;;1.60;99.90;;;;;;5056402;28;20055;-29
2023/12/04 10:43:19;;;;;;;13.02;7.53;;;1.70;99.90;;;;;;5056369;28;20049;-29
2023/12/04 10:45:46;;;;;;;12.48;7.90;;;1.70;99.90;;;;;;5055297;28;20437;-29
2023/12/04 10:48:13;;;;;;;11.85;7.38;;;1.80;99.90;;;;;;5056224;28;20049;-30
2023/12/04 10:50:42;;;;;;;12.48;7.72;;;1.80;99.90;;;;;;5056761;28;20048;-30
2023/12/04 10:53:09;;;;;;;13.00;8.10;;;1.80;99.90;;;;;;5056192;28;20061;-30
2023/12/04 10:55:35;;;;;;;12.55;7.43;;;1.80;99.90;;;;;;5056661;28;20051;-30
2023/12/04 10:58:12;;;;;;;14.70;8.85;;;1.80;99.90;;;;;;5056398;28;20045;-30
2023/12/04 11:00:44;;;;;;;12.27;7.75;;;1.90;99.90;;;;;;5056738;28;20052;-30
2023/12/04 11:03:14;;;;;;;13.05;8.38;;;1.90;99.90;;;;;;5056933;28;20049;-30
2023/12/04 11:05:41;;;;;;;12.32;8.15;;;2.00;99.90;;;;;;5055872;28;20057;-30
2023/12/04 11:08:11;;;;;;;9.38;6.85;;;2.00;99.90;;;;;;5055261;28;20136;-30
2023/12/04 11:10:53;;;;;;;12.30;8.07;;;2.00;99.90;;;;;;5038314;28;20056;-30
2023/12/04 11:13:28;;;;;;;12.40;7.93;;;2.60;99.90;;;;;;5056719;28;20119;-31
2023/12/04 11:15:59;;;;;;;12.13;7.55;;;2.00;99.90;;;;;;5054943;28;20372;-30
2023/12/04 11:18:27;;;;;;;12.65;8.02;;;2.10;99.90;;;;;;5055775;28;20088;-31
2023/12/04 11:21:07;;;;;;;12.00;7.93;;;2.00;99.90;;;;;;5055571;28;20494;-31
2023/12/04 11:23:34;;;;;;;12.07;7.82;;;2.20;99.90;;;;;;5056289;28;20106;-32
2023/12/04 11:26:01;;;;;;;12.05;7.63;;;2.20;99.90;;;;;;5055241;28;20398;-32
2023/12/04 11:28:28;;;;;;;12.65;7.88;;;2.20;99.90;;;;;;5055427;28;20065;-33
2023/12/04 11:30:54;;;;;;;11.65;7.05;;;2.20;99.90;;;;;;5055556;28;20098;-33
2023/12/04 11:33:20;;;;;;;14.23;7.90;;;2.20;99.90;;;;;;5055445;28;20045;-32
2023/12/04 11:35:46;;;;;;;12.52;7.47;;;2.30;99.90;;;;;;5055383;28;20041;-32
2023/12/04 11:38:16;;;;;;;12.55;7.68;;;2.30;99.90;;;;;;5055338;28;20064;-34
2023/12/04 11:40:42;;;;;;;11.73;6.82;;;2.40;99.90;;;;;;5055299;28;20170;-34
2023/12/04 11:43:29;;;;;;;10.93;7.40;;;2.40;99.90;;;;;;5055505;28;20075;-33
2023/12/04 11:46:10;;;;;;;13.68;7.45;;;2.50;99.90;;;;;;5054910;28;20509;-33
2023/12/04 11:48:37;;;;;;;10.20;7.13;;;2.60;99.90;;;;;;5055478;28;20049;-32
2023/12/04 11:51:06;;;;;;;12.70;7.90;;;2.60;99.90;;;;;;5055096;28;20052;-34
2023/12/04 11:53:36;;;;;;;12.77;7.03;;;2.60;99.90;;;;;;5054978;28;20048;-33
2023/12/04 11:56:09;;;;;;;11.63;7.05;;;2.70;99.90;;;;;;5055246;28;20053;-34
2023/12/04 11:58:43;;;;;;;10.15;6.82;;;2.60;99.90;;;;;;5054618;28;20056;-33
2023/12/04 12:01:08;;;;;;;10.95;7.10;;;2.50;99.90;;;;;;5055261;28;20487;-34
2023/12/04 12:03:34;;;;;;;12.52;6.85;;;2.40;99.90;;;;;;5037020;28;20041;-33
2023/12/04 12:06:00;;;;;;;10.60;6.72;;;2.30;99.90;;;;;;5054486;28;20091;-34
2023/12/04 12:08:28;;;;;;;12.07;6.65;;;2.20;99.90;;;;;;5054126;28;20052;-34
2023/12/04 12:10:55;;;;;;;9.68;6.50;;;2.10;99.90;;;;;;5055006;28;20052;-35
2023/12/04 12:13:21;;;;;;;14.20;7.60;;;2.00;99.90;;;;;;5054695;28;20053;-35
2023/12/04 12:15:50;;;;;;;10.00;6.88;;;1.90;99.90;;;;;;5053309;28;20045;-35
2023/12/04 12:18:16;;;;;;;9.38;6.68;;;1.90;99.90;;;;;;5054575;28;20509;-34
2023/12/04 12:20:42;;;;;;;12.48;7.88;;;1.90;99.90;;;;;;5053428;28;20141;-32
2023/12/04 12:23:08;;;;;;;11.60;7.03;;;1.80;99.90;;;;;;5053885;28;20049;-31
2023/12/04 12:25:35;;;;;;;14.02;7.03;;;1.80;99.90;;;;;;5053163;28;20045;-31
2023/12/04 12:28:05;;;;;;;11.07;7.22;;;1.70;99.90;;;;;;5053180;28;20486;-32
2023/12/04 12:30:31;;;;;;;11.60;7.07;;;1.70;99.90;;;;;;5054827;28;20064;-31